Hlavní strana
METAR-TAF:

METAR-TAF

Letiště :

Ouagadougou, Burkina Faso

zeměpisná šířka: 12-21N, zeměpisná délka: 001-31W, výška: 316 m

Aktuální stav počasí

Zpráva byla vytvořena před 52 minutami, v 10:00 UTC
Západojihozápadní vítr 4 kt
Teplota 29°C
Vlhkost vzduchu 70%
Tlak 1014 hPa
Viditelnost 10 km a více
Skoro jasno ve výšce 2000 ft
Polojasno ve výšce 2600 ft

METAR: DFFD 221000Z 24004KT 9999 FEW020 SCT026 29/23 Q1014 NOSIG

Čas: 10:52 (10:52 UTC)

Předpověď počasí

Zpráva byla vytvořena před 5 hodinami a 52 minutami, v 05:00 UTC
Předpověď platná od 22 v 06 UTC do 23 v 12 UTC
Jihojihozápadní vítr 8 kt
Viditelnost 10 km a více
Polojasno ve výšce 2000 ft
Dočasný
od 22 v 06 UTC do 22 v 14 UTC
Východní vítr 25 kt s nárazy do 45 kt
Viditelnost: 2500 m
Polojasno ve výšce 2000 ft
Polojasno ve výšce 3300 ft, Cumulonimbus.
bouřky, bouřka, déšť

TAF: DFFD 220500Z 2206/2312 20008KT 9999 SCT020 TEMPO 2206/2214 09025G45KT 2500 SQ TSRA SCT020 SCT033CB

Stav a předpovědi počasí z více než 4 000 letišť (zprávy METAR a TAF).

Červené a žluté tečky na mapě představují dostupné meteorologické stanice.

Když kurzor umístíte na tečku, zobrazí se název stanice.

Pak kliknutím zobrazíte stav a předpověď počasí.

Chcete-li změnit mapu, kliknutím na zelené tlačítko se znaménkem +mapu přiblížíte, kliknutím na zelené tlačítko se znaménkem – mapu oddálíte a kliknutím na zelené šipky přejdete na sousední mapy.


METAR-TAF: